createdAt,value
2022-10-31T00:00:38.908Z,12.35
2022-10-31T00:03:22.070Z,12.36
2022-10-31T00:06:05.204Z,12.32
2022-10-31T00:08:48.262Z,12.24
2022-10-31T00:11:31.676Z,12.12
2022-10-31T00:14:16.206Z,12.00
2022-10-31T00:16:59.245Z,11.94
2022-10-31T00:19:42.256Z,11.81
2022-10-31T00:22:25.317Z,11.81
2022-10-31T00:25:08.889Z,11.79
2022-10-31T00:27:51.962Z,11.77
2022-10-31T00:30:36.689Z,11.79
2022-10-31T00:33:19.778Z,11.55
2022-10-31T00:36:02.816Z,11.58
2022-10-31T00:38:46.828Z,11.54
2022-10-31T00:41:30.042Z,11.50
2022-10-31T00:44:12.972Z,11.48
2022-10-31T00:46:57.372Z,11.54
2022-10-31T00:49:40.342Z,11.53
2022-10-31T00:52:23.317Z,11.52
2022-10-31T00:55:06.797Z,11.49
2022-10-31T00:57:50.005Z,11.45
2022-10-31T01:00:33.015Z,11.50
2022-10-31T01:03:17.415Z,11.42
2022-10-31T01:06:03.043Z,11.43
2022-10-31T01:08:48.869Z,11.36
2022-10-31T01:11:31.879Z,11.31
2022-10-31T01:14:14.891Z,11.28
2022-10-31T01:16:57.918Z,11.00
2022-10-31T01:19:42.583Z,11.12
2022-10-31T01:22:25.639Z,11.14
2022-10-31T01:25:10.230Z,11.19
2022-10-31T01:27:53.164Z,11.20
2022-10-31T01:30:36.177Z,11.23
2022-10-31T01:33:19.160Z,11.32
2022-10-31T01:36:04.096Z,11.47
2022-10-31T01:38:47.555Z,11.55
2022-10-31T01:41:33.460Z,11.52
2022-10-31T01:44:52.694Z,11.62
2022-10-31T01:47:45.723Z,11.64
2022-10-31T01:50:33.016Z,11.72
2022-10-31T01:53:19.883Z,11.71
2022-10-31T01:56:06.751Z,11.65
2022-10-31T01:58:49.750Z,11.75
2022-10-31T02:01:33.162Z,11.77
2022-10-31T02:04:17.411Z,11.78
2022-10-31T02:07:04.766Z,11.85
2022-10-31T02:09:51.685Z,11.80
2022-10-31T02:12:37.084Z,11.70
2022-10-31T02:15:20.294Z,11.60
2022-10-31T02:18:03.725Z,11.54
2022-10-31T02:20:57.174Z,11.43
2022-10-31T02:24:09.784Z,11.38
2022-10-31T02:27:05.864Z,11.43
2022-10-31T02:30:04.599Z,11.45
2022-10-31T02:33:01.676Z,11.53
2022-10-31T02:36:06.105Z,11.53
2022-10-31T02:38:58.157Z,11.57
2022-10-31T02:41:49.247Z,11.62
2022-10-31T02:44:39.635Z,11.51
2022-10-31T02:47:28.820Z,11.56
2022-10-31T02:50:18.330Z,11.60
2022-10-31T02:53:01.381Z,11.65
2022-10-31T02:56:00.169Z,11.71
2022-10-31T02:58:48.096Z,11.69
2022-10-31T03:01:48.078Z,11.66
2022-10-31T03:04:43.504Z,11.71
2022-10-31T03:07:37.574Z,11.77
2022-10-31T03:10:33.809Z,11.73
2022-10-31T03:13:25.941Z,11.70
2022-10-31T03:16:15.878Z,11.40
2022-10-31T03:19:03.001Z,11.45
2022-10-31T03:21:49.665Z,11.36
2022-10-31T03:24:38.105Z,11.46
2022-10-31T03:27:26.358Z,11.37
2022-10-31T03:30:10.610Z,11.30
2022-10-31T03:32:57.951Z,11.44
2022-10-31T03:35:44.539Z,11.26
2022-10-31T03:38:28.964Z,11.47
2022-10-31T03:41:19.247Z,11.59
2022-10-31T03:44:07.229Z,11.50
2022-10-31T03:46:50.617Z,11.63
2022-10-31T03:49:35.057Z,11.72
2022-10-31T03:52:26.080Z,11.81
2022-10-31T03:55:15.085Z,11.87
2022-10-31T03:58:03.210Z,11.98
2022-10-31T04:00:48.217Z,11.86
2022-10-31T04:03:33.649Z,11.80
2022-10-31T04:06:18.604Z,11.71
2022-10-31T04:09:04.965Z,11.59
2022-10-31T04:11:52.451Z,11.51
2022-10-31T04:14:40.416Z,11.37
2022-10-31T04:17:25.839Z,11.43
2022-10-31T04:20:09.843Z,11.39
2022-10-31T04:22:52.833Z,11.44
2022-10-31T04:25:35.795Z,11.62
2022-10-31T04:31:08.238Z,11.74
2022-10-31T04:33:51.183Z,11.68
2022-10-31T04:36:34.168Z,11.72
2022-10-31T04:39:18.051Z,11.71
2022-10-31T04:42:03.282Z,11.82
2022-10-31T04:44:46.285Z,11.79
2022-10-31T04:47:33.221Z,11.82
2022-10-31T04:50:16.272Z,11.94
2022-10-31T04:52:59.325Z,11.94
2022-10-31T04:55:42.323Z,11.94
2022-10-31T04:58:25.379Z,12.00
2022-10-31T05:01:08.472Z,12.09
2022-10-31T05:03:53.259Z,12.08
2022-10-31T05:06:36.284Z,12.17
2022-10-31T05:09:19.274Z,12.12
2022-10-31T05:12:02.267Z,12.05
2022-10-31T05:14:48.488Z,12.20
2022-10-31T05:17:33.240Z,12.33
2022-10-31T05:20:20.059Z,12.47
2022-10-31T05:23:03.043Z,12.37
2022-10-31T05:25:47.011Z,12.39
2022-10-31T05:28:30.165Z,12.41
2022-10-31T05:31:13.285Z,12.35
2022-10-31T05:33:56.367Z,12.33
2022-10-31T05:36:40.781Z,12.24
2022-10-31T05:39:23.872Z,12.15
2022-10-31T05:42:07.037Z,12.18
2022-10-31T05:44:50.060Z,12.07
2022-10-31T05:47:33.146Z,12.08
2022-10-31T05:50:16.287Z,12.09
2022-10-31T05:53:02.684Z,11.95
2022-10-31T05:55:47.329Z,12.05
2022-10-31T05:58:30.438Z,11.56
2022-10-31T06:01:13.687Z,11.69
2022-10-31T06:03:56.854Z,11.86
2022-10-31T06:06:39.937Z,12.79
2022-10-31T06:09:24.454Z,14.41
2022-10-31T06:12:08.042Z,16.15
2022-10-31T06:14:51.176Z,16.80
2022-10-31T06:17:34.505Z,18.95
2022-10-31T06:20:17.707Z,20.77
2022-10-31T06:23:01.348Z,23.10
2022-10-31T06:25:50.229Z,25.90
2022-10-31T06:28:33.317Z,28.02
2022-10-31T06:31:16.497Z,29.10
2022-10-31T06:33:59.605Z,31.17
2022-10-31T06:36:42.704Z,32.03
2022-10-31T06:39:25.724Z,31.66
2022-10-31T06:42:10.177Z,33.22
2022-10-31T06:44:53.232Z,34.41
2022-10-31T06:47:50.803Z,36.10
2022-10-31T06:50:39.532Z,34.01
2022-10-31T06:53:22.602Z,31.40
2022-10-31T06:56:06.109Z,31.28
2022-10-31T06:58:50.655Z,30.47
2022-10-31T07:01:33.880Z,28.43
2022-10-31T07:04:17.028Z,30.92
2022-10-31T07:07:00.054Z,31.46
2022-10-31T07:09:43.156Z,33.39
2022-10-31T07:12:26.177Z,35.45
2022-10-31T07:15:11.624Z,33.19
2022-10-31T07:17:54.956Z,34.85
2022-10-31T07:20:38.121Z,32.00
2022-10-31T07:23:21.200Z,30.54
2022-10-31T07:26:04.178Z,31.19
2022-10-31T07:28:49.064Z,31.42
2022-10-31T07:31:33.478Z,28.53
2022-10-31T07:34:16.587Z,31.29
2022-10-31T07:36:59.628Z,31.98
2022-10-31T07:39:42.654Z,31.66
2022-10-31T07:42:25.718Z,32.71
2022-10-31T07:45:11.741Z,34.25
2022-10-31T07:47:56.702Z,31.36
2022-10-31T07:50:40.436Z,30.18
2022-10-31T07:53:23.523Z,34.64
2022-10-31T07:56:06.890Z,34.95
2022-10-31T07:58:49.982Z,37.76
2022-10-31T08:01:33.012Z,38.69
2022-10-31T08:04:17.477Z,40.25
2022-10-31T08:07:00.776Z,39.93
2022-10-31T08:09:43.907Z,42.57
2022-10-31T08:12:27.098Z,41.56
2022-10-31T08:15:11.345Z,36.63
2022-10-31T08:17:54.836Z,34.91
2022-10-31T08:20:39.408Z,39.21
2022-10-31T08:23:22.885Z,43.09
2022-10-31T08:26:07.122Z,43.86
2022-10-31T08:28:50.902Z,45.10
2022-10-31T08:31:36.616Z,44.68
2022-10-31T08:34:21.955Z,45.29
2022-10-31T08:37:06.408Z,46.51
2022-10-31T08:39:49.963Z,48.56
2022-10-31T08:42:33.070Z,45.17
2022-10-31T08:45:16.226Z,42.45
2022-10-31T08:48:01.120Z,43.60
2022-10-31T08:50:45.912Z,42.56
2022-10-31T08:53:33.670Z,40.95
2022-10-31T08:56:16.981Z,42.31
2022-10-31T08:59:00.160Z,42.75
2022-10-31T09:01:43.229Z,40.74
2022-10-31T09:04:26.381Z,41.19
2022-10-31T09:07:24.808Z,40.40
2022-10-31T09:10:10.018Z,40.02
2022-10-31T09:12:57.561Z,35.64
2022-10-31T09:15:44.751Z,34.49
2022-10-31T09:18:28.996Z,34.56
2022-10-31T09:21:12.028Z,31.59
2022-10-31T09:23:55.252Z,30.16
2022-10-31T09:26:48.457Z,27.68
2022-10-31T09:29:31.573Z,26.50
2022-10-31T09:32:14.637Z,26.06
2022-10-31T09:34:57.752Z,26.20
2022-10-31T09:37:40.849Z,27.24
2022-10-31T09:40:24.878Z,30.95
2022-10-31T09:43:17.774Z,35.21
2022-10-31T09:46:06.519Z,37.84
2022-10-31T09:49:10.075Z,39.83
2022-10-31T09:51:59.677Z,38.50
2022-10-31T09:54:47.297Z,41.70
2022-10-31T09:57:34.750Z,45.22
2022-10-31T10:00:22.190Z,42.21
2022-10-31T10:03:27.909Z,43.13
2022-10-31T10:06:17.717Z,46.42
2022-10-31T10:09:00.924Z,48.97
2022-10-31T10:11:56.047Z,47.02
2022-10-31T10:14:55.671Z,43.45
2022-10-31T10:18:01.705Z,47.63
2022-10-31T10:20:59.561Z,47.05
2022-10-31T10:23:56.655Z,46.45
2022-10-31T10:26:43.747Z,46.60
2022-10-31T10:29:35.268Z,45.22
2022-10-31T10:32:24.703Z,40.98
2022-10-31T10:35:21.958Z,42.27
2022-10-31T10:38:16.306Z,42.54
2022-10-31T10:41:02.139Z,42.77
2022-10-31T10:43:45.169Z,43.01
2022-10-31T10:46:53.903Z,44.63
2022-10-31T10:49:47.174Z,42.69
2022-10-31T10:52:43.554Z,40.70
2022-10-31T10:55:41.365Z,38.24
2022-10-31T10:58:25.029Z,40.74
2022-10-31T11:04:05.583Z,44.49
2022-10-31T11:06:59.244Z,44.89
2022-10-31T11:09:43.814Z,49.87
2022-10-31T11:12:31.633Z,51.21
2022-10-31T11:15:23.865Z,52.37
2022-10-31T11:18:07.549Z,50.04
2022-10-31T11:20:55.011Z,51.12
2022-10-31T11:23:38.078Z,50.87
2022-10-31T11:26:23.511Z,45.96
2022-10-31T11:29:07.692Z,42.91
2022-10-31T11:31:53.994Z,39.97
2022-10-31T11:34:40.010Z,36.13
2022-10-31T11:37:26.783Z,34.46
2022-10-31T11:40:20.177Z,33.39
2022-10-31T11:43:04.819Z,32.35
2022-10-31T11:45:48.327Z,30.73
2022-10-31T11:48:31.845Z,29.80
2022-10-31T11:51:15.406Z,29.26
2022-10-31T11:54:02.989Z,28.40
2022-10-31T11:56:46.690Z,28.11
2022-10-31T11:59:32.907Z,27.33
2022-10-31T12:02:21.341Z,26.39
2022-10-31T12:05:21.018Z,26.35
2022-10-31T12:08:04.766Z,26.29
2022-10-31T12:10:58.485Z,26.32
2022-10-31T12:14:03.673Z,26.25
2022-10-31T12:16:54.714Z,25.73
2022-10-31T12:19:44.888Z,25.88
2022-10-31T12:22:38.797Z,25.78
2022-10-31T12:25:34.512Z,25.57
2022-10-31T12:28:41.564Z,25.33
2022-10-31T12:31:41.686Z,25.31
2022-10-31T12:34:49.581Z,25.06
2022-10-31T12:37:50.826Z,24.75
2022-10-31T12:40:48.338Z,24.80
2022-10-31T12:43:38.785Z,24.41
2022-10-31T12:46:32.137Z,24.38
2022-10-31T12:49:30.122Z,24.48
2022-10-31T12:52:33.928Z,24.27
2022-10-31T12:55:31.981Z,24.13
2022-10-31T12:58:26.480Z,23.86
2022-10-31T13:01:14.717Z,23.88
2022-10-31T13:04:04.372Z,23.98
2022-10-31T13:06:51.525Z,23.62
2022-10-31T13:09:40.916Z,23.78
2022-10-31T13:12:26.500Z,23.86
2022-10-31T13:15:18.872Z,23.85
2022-10-31T13:18:07.171Z,23.85
2022-10-31T13:20:54.783Z,23.83
2022-10-31T13:23:56.800Z,23.72
2022-10-31T13:26:48.442Z,23.71
2022-10-31T13:29:35.413Z,23.63
2022-10-31T13:32:18.600Z,23.56
2022-10-31T13:35:02.573Z,23.48
2022-10-31T13:37:54.846Z,23.39
2022-10-31T13:40:46.907Z,23.21
2022-10-31T13:43:38.297Z,23.19
2022-10-31T13:46:26.272Z,23.13
2022-10-31T13:49:27.678Z,23.02
2022-10-31T13:52:18.540Z,22.95
2022-10-31T13:55:01.638Z,23.01
2022-10-31T13:57:46.111Z,22.93
2022-10-31T14:00:35.845Z,22.85
2022-10-31T14:03:42.546Z,22.80
2022-10-31T14:06:36.858Z,22.82
2022-10-31T14:09:30.926Z,22.76
2022-10-31T14:12:24.696Z,22.74
2022-10-31T14:15:17.601Z,22.73
2022-10-31T14:18:06.590Z,22.73
2022-10-31T14:20:49.917Z,22.72
2022-10-31T14:23:41.423Z,22.70
2022-10-31T14:26:36.427Z,22.56
2022-10-31T14:29:31.256Z,22.57
2022-10-31T14:32:23.584Z,22.50
2022-10-31T14:35:21.187Z,22.42
2022-10-31T14:38:37.199Z,22.26
2022-10-31T14:41:39.942Z,22.19
2022-10-31T14:45:01.364Z,22.12
2022-10-31T14:48:07.068Z,22.08
2022-10-31T14:50:54.610Z,21.92
2022-10-31T14:53:44.442Z,21.88
2022-10-31T14:56:29.976Z,21.84
2022-10-31T14:59:17.454Z,21.76
2022-10-31T15:02:03.729Z,21.65
2022-10-31T15:04:49.414Z,21.59
2022-10-31T15:07:37.636Z,21.41
2022-10-31T15:10:37.874Z,21.24
2022-10-31T15:13:25.689Z,21.12
2022-10-31T15:16:12.392Z,21.02
2022-10-31T15:18:58.428Z,20.81
2022-10-31T15:21:45.839Z,20.60
2022-10-31T15:24:40.958Z,20.55
2022-10-31T15:27:25.473Z,20.51
2022-10-31T15:30:20.406Z,20.42
2022-10-31T15:33:03.534Z,20.20
2022-10-31T15:35:57.888Z,20.10
2022-10-31T15:38:40.955Z,20.02
2022-10-31T15:41:31.884Z,19.97
2022-10-31T15:44:17.840Z,19.84
2022-10-31T15:47:04.126Z,19.73
2022-10-31T15:49:52.332Z,19.58
2022-10-31T15:52:43.788Z,19.44
2022-10-31T15:55:33.371Z,19.24
2022-10-31T15:58:19.588Z,19.02
2022-10-31T16:01:05.068Z,18.87
2022-10-31T16:04:00.722Z,18.77
2022-10-31T16:06:43.850Z,18.61
2022-10-31T16:09:27.081Z,18.45
2022-10-31T16:12:19.984Z,18.37
2022-10-31T16:15:15.324Z,18.16
2022-10-31T16:18:01.634Z,18.03
2022-10-31T16:20:53.596Z,17.98
2022-10-31T16:23:38.959Z,17.87
2022-10-31T16:26:22.292Z,17.71
2022-10-31T16:29:05.962Z,17.63
2022-10-31T16:31:50.618Z,17.52
2022-10-31T16:34:33.713Z,17.44
2022-10-31T16:37:16.804Z,17.27
2022-10-31T16:39:59.871Z,17.16
2022-10-31T16:42:43.198Z,17.06
2022-10-31T16:45:27.931Z,16.93
2022-10-31T16:48:15.742Z,16.83
2022-10-31T16:50:58.801Z,16.78
2022-10-31T16:53:46.591Z,16.65
2022-10-31T16:56:32.495Z,16.59
2022-10-31T16:59:16.529Z,16.50
2022-10-31T17:02:00.737Z,16.42
2022-10-31T17:04:45.386Z,16.32
2022-10-31T17:07:28.372Z,16.23
2022-10-31T17:10:13.070Z,16.21
2022-10-31T17:12:57.887Z,16.15
2022-10-31T17:15:45.585Z,16.08
2022-10-31T17:18:29.064Z,15.98
2022-10-31T17:21:19.541Z,15.96
2022-10-31T17:24:02.517Z,15.98
2022-10-31T17:26:45.868Z,16.00
2022-10-31T17:29:28.863Z,15.98
2022-10-31T17:32:11.974Z,15.86
2022-10-31T17:34:54.987Z,15.79
2022-10-31T17:37:39.646Z,15.78
2022-10-31T17:40:23.583Z,15.65
2022-10-31T17:43:07.145Z,15.62
2022-10-31T17:45:50.121Z,15.61
2022-10-31T17:48:34.845Z,15.55
2022-10-31T17:51:18.050Z,15.58
2022-10-31T17:54:02.454Z,15.57
2022-10-31T17:56:45.449Z,15.56
2022-10-31T17:59:30.192Z,15.56
2022-10-31T18:02:13.700Z,15.44
2022-10-31T18:04:56.868Z,15.48
2022-10-31T18:07:40.171Z,15.37
2022-10-31T18:10:24.576Z,15.37
2022-10-31T18:13:07.570Z,15.32
2022-10-31T18:15:50.831Z,15.30
2022-10-31T18:18:33.894Z,15.24
2022-10-31T18:21:17.997Z,15.20
2022-10-31T18:24:03.001Z,15.19
2022-10-31T18:26:48.334Z,15.20
2022-10-31T18:29:31.500Z,15.09
2022-10-31T18:32:14.753Z,15.00
2022-10-31T18:34:57.736Z,14.86
2022-10-31T18:37:40.772Z,14.75
2022-10-31T18:40:23.800Z,14.66
2022-10-31T18:43:08.192Z,14.56
2022-10-31T18:45:53.689Z,14.44
2022-10-31T18:48:42.807Z,14.49
2022-10-31T18:51:26.345Z,14.64
2022-10-31T18:54:09.906Z,14.64
2022-10-31T18:56:53.240Z,14.68
2022-10-31T18:59:37.692Z,14.61
2022-10-31T19:02:21.094Z,14.53
2022-10-31T19:05:04.591Z,14.46
2022-10-31T19:07:47.640Z,14.49
2022-10-31T19:10:31.388Z,14.52
2022-10-31T19:13:14.929Z,14.50
2022-10-31T19:16:05.381Z,14.56
2022-10-31T19:18:48.513Z,14.50
2022-10-31T19:21:32.474Z,14.48
2022-10-31T19:24:15.569Z,14.48
2022-10-31T19:27:00.692Z,14.43
2022-10-31T19:29:43.765Z,14.37
2022-10-31T19:32:28.695Z,14.31
2022-10-31T19:35:11.728Z,14.26
2022-10-31T19:37:54.793Z,14.24
2022-10-31T19:40:38.198Z,14.21
2022-10-31T19:43:21.267Z,14.17
2022-10-31T19:46:05.410Z,14.11
2022-10-31T19:48:50.017Z,14.10
2022-10-31T19:51:33.034Z,14.11
2022-10-31T19:54:16.306Z,14.07
2022-10-31T19:56:59.389Z,14.08
2022-10-31T19:59:42.498Z,14.04
2022-10-31T20:02:27.093Z,14.05
2022-10-31T20:05:11.756Z,14.00
2022-10-31T20:07:54.770Z,13.95
2022-10-31T20:10:37.889Z,13.95
2022-10-31T20:13:20.945Z,13.92
2022-10-31T20:16:08.192Z,13.84
2022-10-31T20:18:51.303Z,13.89
2022-10-31T20:21:39.621Z,13.77
2022-10-31T20:24:22.726Z,13.81
2022-10-31T20:27:05.986Z,13.79
2022-10-31T20:29:49.148Z,13.66
2022-10-31T20:32:32.258Z,13.63
2022-10-31T20:35:15.433Z,13.57
2022-10-31T20:38:00.183Z,13.52
2022-10-31T20:40:43.659Z,13.55
2022-10-31T20:43:26.715Z,13.57
2022-10-31T20:46:12.279Z,13.47
2022-10-31T20:48:55.998Z,13.40
2022-10-31T20:51:39.061Z,13.40
2022-10-31T20:54:24.420Z,13.32
2022-10-31T20:57:07.528Z,13.31
2022-10-31T20:59:50.794Z,13.30
2022-10-31T21:02:34.190Z,13.29
2022-10-31T21:05:17.266Z,13.29
2022-10-31T21:08:00.237Z,13.30
2022-10-31T21:10:44.670Z,13.18
2022-10-31T21:13:29.436Z,13.13
2022-10-31T21:16:14.703Z,13.11
2022-10-31T21:18:58.153Z,13.07
2022-10-31T21:21:41.372Z,13.02
2022-10-31T21:24:24.523Z,12.99
2022-10-31T21:27:11.620Z,12.97
2022-10-31T21:29:55.699Z,12.89
2022-10-31T21:32:38.717Z,12.88
2022-10-31T21:35:21.729Z,12.90
2022-10-31T21:38:04.913Z,12.84
2022-10-31T21:40:47.930Z,12.89
2022-10-31T21:43:32.904Z,12.82
2022-10-31T21:46:17.669Z,12.76
2022-10-31T21:49:02.886Z,12.72
2022-10-31T21:51:46.918Z,12.73
2022-10-31T21:54:32.808Z,12.75
2022-10-31T21:57:15.943Z,12.66
2022-10-31T22:00:00.422Z,12.68
2022-10-31T22:02:43.433Z,12.64
2022-10-31T22:05:26.413Z,12.62
2022-10-31T22:08:09.375Z,12.52
2022-10-31T22:10:52.365Z,12.51
2022-10-31T22:13:36.463Z,12.48
2022-10-31T22:16:22.636Z,12.47
2022-10-31T22:19:07.344Z,12.48
2022-10-31T22:21:50.350Z,12.50
2022-10-31T22:24:33.351Z,12.48
2022-10-31T22:27:16.343Z,12.46
2022-10-31T22:29:59.668Z,12.46
2022-10-31T22:32:44.052Z,12.36
2022-10-31T22:35:27.111Z,12.37
2022-10-31T22:38:10.083Z,12.29
2022-10-31T22:40:57.673Z,12.34
2022-10-31T22:43:40.939Z,12.25
2022-10-31T22:46:25.637Z,12.22
2022-10-31T22:49:13.971Z,12.19
2022-10-31T22:51:59.795Z,12.10
2022-10-31T22:54:43.868Z,12.12
2022-10-31T22:57:26.820Z,12.06
2022-10-31T23:00:11.128Z,12.09
2022-10-31T23:02:54.089Z,12.05
2022-10-31T23:05:38.500Z,12.04
2022-10-31T23:08:21.488Z,12.03
2022-10-31T23:11:04.564Z,12.03
2022-10-31T23:14:06.779Z,12.07
2022-10-31T23:16:51.565Z,12.09
2022-10-31T23:19:34.669Z,12.12
2022-10-31T23:22:19.111Z,12.12
2022-10-31T23:25:02.739Z,12.08
2022-10-31T23:27:44.730Z,12.03
2022-10-31T23:30:27.715Z,11.88
2022-10-31T23:33:10.689Z,11.89
2022-10-31T23:35:53.673Z,11.86
2022-10-31T23:38:38.098Z,11.76
2022-10-31T23:41:21.078Z,11.79
2022-10-31T23:44:04.095Z,11.73
2022-10-31T23:46:47.087Z,11.83
2022-10-31T23:49:30.269Z,11.79
2022-10-31T23:52:14.110Z,11.76
2022-10-31T23:54:59.774Z,11.63
2022-10-31T23:57:42.787Z,11.65
